sensor_id;sensor_type;location;lat;lon;timestamp;P1;durP1;ratioP1;P2;durP2;ratioP2
56043;SDS011;41912;51.022;3.664;2023-05-15T00:01:14;31.75;;;22.55;;
56043;SDS011;41912;51.022;3.664;2023-05-15T00:03:40;37.22;;;25.08;;
56043;SDS011;41912;51.022;3.664;2023-05-15T00:06:06;36.70;;;23.75;;
56043;SDS011;41912;51.022;3.664;2023-05-15T00:08:31;33.20;;;23.42;;
56043;SDS011;41912;51.022;3.664;2023-05-15T00:10:57;37.40;;;25.35;;
56043;SDS011;41912;51.022;3.664;2023-05-15T00:13:22;42.17;;;28.80;;
56043;SDS011;41912;51.022;3.664;2023-05-15T00:15:48;43.40;;;27.45;;
56043;SDS011;41912;51.022;3.664;2023-05-15T00:18:14;38.63;;;23.27;;
56043;SDS011;41912;51.022;3.664;2023-05-15T00:20:39;37.97;;;25.35;;
56043;SDS011;41912;51.022;3.664;2023-05-15T00:23:05;38.78;;;25.13;;
56043;SDS011;41912;51.022;3.664;2023-05-15T00:25:31;37.53;;;24.88;;
56043;SDS011;41912;51.022;3.664;2023-05-15T00:27:56;37.72;;;26.05;;
56043;SDS011;41912;51.022;3.664;2023-05-15T00:30:22;36.58;;;24.90;;
56043;SDS011;41912;51.022;3.664;2023-05-15T00:32:47;33.17;;;23.15;;
56043;SDS011;41912;51.022;3.664;2023-05-15T00:35:13;40.33;;;26.15;;
56043;SDS011;41912;51.022;3.664;2023-05-15T00:37:39;46.13;;;27.23;;
56043;SDS011;41912;51.022;3.664;2023-05-15T00:40:05;38.30;;;24.85;;
56043;SDS011;41912;51.022;3.664;2023-05-15T00:42:33;40.78;;;24.65;;
56043;SDS011;41912;51.022;3.664;2023-05-15T00:45:00;38.92;;;25.73;;
56043;SDS011;41912;51.022;3.664;2023-05-15T00:47:27;35.38;;;24.17;;
56043;SDS011;41912;51.022;3.664;2023-05-15T00:49:53;39.42;;;22.10;;
56043;SDS011;41912;51.022;3.664;2023-05-15T00:52:20;34.70;;;24.25;;
56043;SDS011;41912;51.022;3.664;2023-05-15T00:54:46;38.08;;;25.15;;
56043;SDS011;41912;51.022;3.664;2023-05-15T00:57:12;37.13;;;24.70;;
56043;SDS011;41912;51.022;3.664;2023-05-15T00:59:39;34.10;;;24.13;;
56043;SDS011;41912;51.022;3.664;2023-05-15T01:02:06;40.40;;;26.38;;
56043;SDS011;41912;51.022;3.664;2023-05-15T01:04:32;38.25;;;24.05;;
56043;SDS011;41912;51.022;3.664;2023-05-15T01:06:57;38.92;;;23.67;;
56043;SDS011;41912;51.022;3.664;2023-05-15T01:09:23;40.65;;;27.00;;
56043;SDS011;41912;51.022;3.664;2023-05-15T01:11:53;37.75;;;24.55;;
56043;SDS011;41912;51.022;3.664;2023-05-15T01:14:20;38.20;;;24.45;;
56043;SDS011;41912;51.022;3.664;2023-05-15T01:16:46;37.15;;;24.70;;
56043;SDS011;41912;51.022;3.664;2023-05-15T01:19:12;41.90;;;25.90;;
56043;SDS011;41912;51.022;3.664;2023-05-15T01:22:03;40.25;;;26.38;;
56043;SDS011;41912;51.022;3.664;2023-05-15T01:28:13;35.83;;;24.75;;
56043;SDS011;41912;51.022;3.664;2023-05-15T01:30:44;38.95;;;25.38;;
56043;SDS011;41912;51.022;3.664;2023-05-15T01:33:26;37.33;;;25.25;;
56043;SDS011;41912;51.022;3.664;2023-05-15T01:35:58;41.45;;;25.17;;
56043;SDS011;41912;51.022;3.664;2023-05-15T01:38:41;34.70;;;23.70;;
56043;SDS011;41912;51.022;3.664;2023-05-15T01:41:31;36.78;;;24.08;;
56043;SDS011;41912;51.022;3.664;2023-05-15T01:44:21;35.60;;;24.48;;
56043;SDS011;41912;51.022;3.664;2023-05-15T01:46:54;34.25;;;24.25;;
56043;SDS011;41912;51.022;3.664;2023-05-15T01:49:23;37.20;;;24.77;;
56043;SDS011;41912;51.022;3.664;2023-05-15T01:51:52;38.83;;;24.52;;
56043;SDS011;41912;51.022;3.664;2023-05-15T01:54:25;39.30;;;25.42;;
56043;SDS011;41912;51.022;3.664;2023-05-15T01:56:53;36.05;;;24.30;;
56043;SDS011;41912;51.022;3.664;2023-05-15T01:59:21;41.95;;;25.33;;
56043;SDS011;41912;51.022;3.664;2023-05-15T02:01:48;45.58;;;29.48;;
56043;SDS011;41912;51.022;3.664;2023-05-15T02:04:15;43.88;;;29.30;;
56043;SDS011;41912;51.022;3.664;2023-05-15T02:06:43;55.28;;;35.70;;
56043;SDS011;41912;51.022;3.664;2023-05-15T02:09:09;55.92;;;35.00;;
56043;SDS011;41912;51.022;3.664;2023-05-15T02:11:35;58.90;;;36.90;;
56043;SDS011;41912;51.022;3.664;2023-05-15T02:14:01;58.00;;;36.45;;
56043;SDS011;41912;51.022;3.664;2023-05-15T02:16:28;57.42;;;36.90;;
56043;SDS011;41912;51.022;3.664;2023-05-15T02:18:54;58.00;;;37.08;;
56043;SDS011;41912;51.022;3.664;2023-05-15T02:21:20;59.17;;;37.40;;
56043;SDS011;41912;51.022;3.664;2023-05-15T02:23:46;61.40;;;36.97;;
56043;SDS011;41912;51.022;3.664;2023-05-15T02:26:25;63.05;;;38.80;;
56043;SDS011;41912;51.022;3.664;2023-05-15T02:29:17;60.05;;;37.58;;
56043;SDS011;41912;51.022;3.664;2023-05-15T02:34:37;63.38;;;37.80;;
56043;SDS011;41912;51.022;3.664;2023-05-15T02:37:20;64.78;;;37.95;;
56043;SDS011;41912;51.022;3.664;2023-05-15T02:39:51;59.70;;;36.95;;
56043;SDS011;41912;51.022;3.664;2023-05-15T02:42:19;59.03;;;35.47;;
56043;SDS011;41912;51.022;3.664;2023-05-15T02:44:45;59.88;;;36.28;;
56043;SDS011;41912;51.022;3.664;2023-05-15T02:47:13;65.22;;;38.15;;
56043;SDS011;41912;51.022;3.664;2023-05-15T02:49:38;65.05;;;39.13;;
56043;SDS011;41912;51.022;3.664;2023-05-15T02:52:04;59.50;;;36.60;;
56043;SDS011;41912;51.022;3.664;2023-05-15T02:54:30;60.17;;;34.70;;
56043;SDS011;41912;51.022;3.664;2023-05-15T02:56:56;58.55;;;34.72;;
56043;SDS011;41912;51.022;3.664;2023-05-15T02:59:22;66.65;;;37.67;;
56043;SDS011;41912;51.022;3.664;2023-05-15T03:01:47;65.07;;;36.35;;
56043;SDS011;41912;51.022;3.664;2023-05-15T03:04:13;64.60;;;36.05;;
56043;SDS011;41912;51.022;3.664;2023-05-15T03:06:39;68.13;;;36.45;;
56043;SDS011;41912;51.022;3.664;2023-05-15T03:09:05;69.28;;;36.05;;
56043;SDS011;41912;51.022;3.664;2023-05-15T03:11:30;64.95;;;36.55;;
56043;SDS011;41912;51.022;3.664;2023-05-15T03:13:56;71.22;;;39.17;;
56043;SDS011;41912;51.022;3.664;2023-05-15T03:16:24;65.13;;;35.05;;
56043;SDS011;41912;51.022;3.664;2023-05-15T03:18:50;65.72;;;36.42;;
56043;SDS011;41912;51.022;3.664;2023-05-15T03:21:17;70.95;;;36.60;;
56043;SDS011;41912;51.022;3.664;2023-05-15T03:23:43;73.82;;;37.90;;
56043;SDS011;41912;51.022;3.664;2023-05-15T03:26:09;68.25;;;35.08;;
56043;SDS011;41912;51.022;3.664;2023-05-15T03:28:36;72.00;;;35.30;;
56043;SDS011;41912;51.022;3.664;2023-05-15T03:31:01;73.03;;;37.88;;
56043;SDS011;41912;51.022;3.664;2023-05-15T03:33:29;67.13;;;36.53;;
56043;SDS011;41912;51.022;3.664;2023-05-15T03:35:55;75.38;;;38.38;;
56043;SDS011;41912;51.022;3.664;2023-05-15T03:38:21;82.10;;;38.83;;
56043;SDS011;41912;51.022;3.664;2023-05-15T03:40:46;73.32;;;36.45;;
56043;SDS011;41912;51.022;3.664;2023-05-15T03:43:12;73.10;;;37.28;;
56043;SDS011;41912;51.022;3.664;2023-05-15T03:45:38;76.20;;;35.47;;
56043;SDS011;41912;51.022;3.664;2023-05-15T03:48:04;79.18;;;38.00;;
56043;SDS011;41912;51.022;3.664;2023-05-15T03:50:30;78.72;;;38.10;;
56043;SDS011;41912;51.022;3.664;2023-05-15T03:52:55;73.25;;;36.10;;
56043;SDS011;41912;51.022;3.664;2023-05-15T03:55:21;79.93;;;39.08;;
56043;SDS011;41912;51.022;3.664;2023-05-15T03:57:47;75.57;;;37.47;;
56043;SDS011;41912;51.022;3.664;2023-05-15T04:00:13;83.35;;;37.72;;
56043;SDS011;41912;51.022;3.664;2023-05-15T04:02:39;80.95;;;37.83;;
56043;SDS011;41912;51.022;3.664;2023-05-15T04:05:05;83.00;;;38.30;;
56043;SDS011;41912;51.022;3.664;2023-05-15T04:07:32;86.78;;;38.45;;
56043;SDS011;41912;51.022;3.664;2023-05-15T04:09:59;85.72;;;39.35;;
56043;SDS011;41912;51.022;3.664;2023-05-15T04:12:26;87.43;;;40.50;;
56043;SDS011;41912;51.022;3.664;2023-05-15T04:14:54;82.60;;;38.90;;
56043;SDS011;41912;51.022;3.664;2023-05-15T04:17:23;86.43;;;40.58;;
56043;SDS011;41912;51.022;3.664;2023-05-15T04:19:48;86.30;;;39.13;;
56043;SDS011;41912;51.022;3.664;2023-05-15T04:22:14;82.18;;;37.97;;
56043;SDS011;41912;51.022;3.664;2023-05-15T04:24:40;88.90;;;39.53;;
56043;SDS011;41912;51.022;3.664;2023-05-15T04:27:05;99.88;;;41.00;;
56043;SDS011;41912;51.022;3.664;2023-05-15T04:29:31;95.50;;;40.67;;
56043;SDS011;41912;51.022;3.664;2023-05-15T04:31:57;95.95;;;40.08;;
56043;SDS011;41912;51.022;3.664;2023-05-15T04:34:22;93.82;;;41.65;;
56043;SDS011;41912;51.022;3.664;2023-05-15T04:36:48;94.32;;;39.80;;
56043;SDS011;41912;51.022;3.664;2023-05-15T04:39:14;98.60;;;41.08;;
56043;SDS011;41912;51.022;3.664;2023-05-15T04:41:40;97.70;;;41.95;;
56043;SDS011;41912;51.022;3.664;2023-05-15T04:44:06;107.72;;;43.22;;
56043;SDS011;41912;51.022;3.664;2023-05-15T04:46:32;111.22;;;43.92;;
56043;SDS011;41912;51.022;3.664;2023-05-15T04:48:58;103.28;;;43.17;;
56043;SDS011;41912;51.022;3.664;2023-05-15T04:51:24;107.72;;;43.50;;
56043;SDS011;41912;51.022;3.664;2023-05-15T04:53:50;133.48;;;47.70;;
56043;SDS011;41912;51.022;3.664;2023-05-15T04:56:15;121.55;;;47.25;;
56043;SDS011;41912;51.022;3.664;2023-05-15T04:58:41;131.63;;;47.50;;
56043;SDS011;41912;51.022;3.664;2023-05-15T05:01:06;137.52;;;47.72;;
56043;SDS011;41912;51.022;3.664;2023-05-15T05:03:32;168.73;;;52.58;;
56043;SDS011;41912;51.022;3.664;2023-05-15T05:05:58;156.40;;;51.63;;
56043;SDS011;41912;51.022;3.664;2023-05-15T05:08:24;175.77;;;53.45;;
56043;SDS011;41912;51.022;3.664;2023-05-15T05:10:54;158.82;;;51.75;;
56043;SDS011;41912;51.022;3.664;2023-05-15T05:13:22;174.90;;;54.45;;
56043;SDS011;41912;51.022;3.664;2023-05-15T05:15:48;184.02;;;54.78;;
56043;SDS011;41912;51.022;3.664;2023-05-15T05:18:14;190.00;;;56.25;;
56043;SDS011;41912;51.022;3.664;2023-05-15T05:20:39;172.43;;;51.88;;
56043;SDS011;41912;51.022;3.664;2023-05-15T05:23:05;168.88;;;52.72;;
56043;SDS011;41912;51.022;3.664;2023-05-15T05:25:30;168.38;;;50.25;;
56043;SDS011;41912;51.022;3.664;2023-05-15T05:27:56;154.82;;;47.83;;
56043;SDS011;41912;51.022;3.664;2023-05-15T05:30:22;169.60;;;51.65;;
56043;SDS011;41912;51.022;3.664;2023-05-15T05:32:47;161.48;;;51.35;;
56043;SDS011;41912;51.022;3.664;2023-05-15T05:35:13;168.55;;;53.42;;
56043;SDS011;41912;51.022;3.664;2023-05-15T05:37:39;162.05;;;50.85;;
56043;SDS011;41912;51.022;3.664;2023-05-15T05:40:04;158.27;;;50.92;;
56043;SDS011;41912;51.022;3.664;2023-05-15T05:42:32;159.05;;;51.15;;
56043;SDS011;41912;51.022;3.664;2023-05-15T05:44:58;166.90;;;54.72;;
56043;SDS011;41912;51.022;3.664;2023-05-15T05:47:24;182.32;;;54.53;;
56043;SDS011;41912;51.022;3.664;2023-05-15T05:49:49;169.85;;;52.25;;
56043;SDS011;41912;51.022;3.664;2023-05-15T05:52:16;167.77;;;52.70;;
56043;SDS011;41912;51.022;3.664;2023-05-15T05:54:41;172.93;;;51.72;;
56043;SDS011;41912;51.022;3.664;2023-05-15T05:57:09;160.65;;;52.50;;
56043;SDS011;41912;51.022;3.664;2023-05-15T05:59:35;161.65;;;52.05;;
56043;SDS011;41912;51.022;3.664;2023-05-15T06:02:01;153.38;;;52.17;;
56043;SDS011;41912;51.022;3.664;2023-05-15T06:04:27;154.48;;;50.97;;
56043;SDS011;41912;51.022;3.664;2023-05-15T06:06:53;165.50;;;54.78;;
56043;SDS011;41912;51.022;3.664;2023-05-15T06:09:19;163.43;;;53.92;;
56043;SDS011;41912;51.022;3.664;2023-05-15T06:11:45;157.82;;;53.83;;
56043;SDS011;41912;51.022;3.664;2023-05-15T06:14:10;160.60;;;54.75;;
56043;SDS011;41912;51.022;3.664;2023-05-15T06:16:36;157.40;;;52.80;;
56043;SDS011;41912;51.022;3.664;2023-05-15T06:19:02;147.23;;;52.85;;
56043;SDS011;41912;51.022;3.664;2023-05-15T06:21:27;141.43;;;50.65;;
56043;SDS011;41912;51.022;3.664;2023-05-15T06:23:53;141.05;;;52.20;;
56043;SDS011;41912;51.022;3.664;2023-05-15T06:26:18;141.85;;;50.53;;
56043;SDS011;41912;51.022;3.664;2023-05-15T06:28:45;132.48;;;48.33;;
56043;SDS011;41912;51.022;3.664;2023-05-15T06:31:11;132.02;;;49.55;;
56043;SDS011;41912;51.022;3.664;2023-05-15T06:33:37;129.32;;;47.42;;
56043;SDS011;41912;51.022;3.664;2023-05-15T06:36:02;127.28;;;47.13;;
56043;SDS011;41912;51.022;3.664;2023-05-15T06:38:28;122.43;;;47.30;;
56043;SDS011;41912;51.022;3.664;2023-05-15T06:40:53;130.60;;;47.75;;
56043;SDS011;41912;51.022;3.664;2023-05-15T06:43:19;115.03;;;44.92;;
56043;SDS011;41912;51.022;3.664;2023-05-15T06:45:45;109.80;;;45.08;;
56043;SDS011;41912;51.022;3.664;2023-05-15T06:48:10;107.05;;;43.80;;
56043;SDS011;41912;51.022;3.664;2023-05-15T06:50:36;115.07;;;44.80;;
56043;SDS011;41912;51.022;3.664;2023-05-15T06:53:01;112.00;;;45.05;;
56043;SDS011;41912;51.022;3.664;2023-05-15T06:55:27;104.07;;;42.78;;
56043;SDS011;41912;51.022;3.664;2023-05-15T06:57:52;121.85;;;46.75;;
56043;SDS011;41912;51.022;3.664;2023-05-15T07:00:18;110.78;;;43.90;;
56043;SDS011;41912;51.022;3.664;2023-05-15T07:02:44;103.10;;;43.70;;
56043;SDS011;41912;51.022;3.664;2023-05-15T07:05:10;107.32;;;42.20;;
56043;SDS011;41912;51.022;3.664;2023-05-15T07:07:35;100.90;;;41.30;;
56043;SDS011;41912;51.022;3.664;2023-05-15T07:10:01;106.43;;;43.65;;
56043;SDS011;41912;51.022;3.664;2023-05-15T07:12:27;105.35;;;42.60;;
56043;SDS011;41912;51.022;3.664;2023-05-15T07:14:52;107.93;;;44.17;;
56043;SDS011;41912;51.022;3.664;2023-05-15T07:17:18;114.05;;;45.28;;
56043;SDS011;41912;51.022;3.664;2023-05-15T07:19:43;108.28;;;46.50;;
56043;SDS011;41912;51.022;3.664;2023-05-15T07:22:09;120.35;;;47.85;;
56043;SDS011;41912;51.022;3.664;2023-05-15T07:24:35;116.90;;;48.22;;
56043;SDS011;41912;51.022;3.664;2023-05-15T07:27:00;115.70;;;47.08;;
56043;SDS011;41912;51.022;3.664;2023-05-15T07:29:26;112.32;;;45.03;;
56043;SDS011;41912;51.022;3.664;2023-05-15T07:31:52;115.47;;;44.80;;
56043;SDS011;41912;51.022;3.664;2023-05-15T07:34:17;105.88;;;43.97;;
56043;SDS011;41912;51.022;3.664;2023-05-15T07:36:43;101.00;;;43.85;;
56043;SDS011;41912;51.022;3.664;2023-05-15T07:39:09;101.93;;;44.75;;
56043;SDS011;41912;51.022;3.664;2023-05-15T07:41:34;105.05;;;43.22;;
56043;SDS011;41912;51.022;3.664;2023-05-15T07:44:00;100.95;;;44.83;;
56043;SDS011;41912;51.022;3.664;2023-05-15T07:46:26;104.53;;;44.60;;
56043;SDS011;41912;51.022;3.664;2023-05-15T07:48:51;97.75;;;43.55;;
56043;SDS011;41912;51.022;3.664;2023-05-15T07:51:17;95.38;;;44.08;;
56043;SDS011;41912;51.022;3.664;2023-05-15T07:53:43;88.45;;;41.95;;
56043;SDS011;41912;51.022;3.664;2023-05-15T07:56:08;87.15;;;40.10;;
56043;SDS011;41912;51.022;3.664;2023-05-15T07:58:34;89.35;;;38.90;;
56043;SDS011;41912;51.022;3.664;2023-05-15T08:01:01;89.97;;;40.80;;
56043;SDS011;41912;51.022;3.664;2023-05-15T08:03:27;83.80;;;38.85;;
56043;SDS011;41912;51.022;3.664;2023-05-15T08:05:53;83.72;;;37.63;;
56043;SDS011;41912;51.022;3.664;2023-05-15T08:08:18;82.72;;;38.88;;
56043;SDS011;41912;51.022;3.664;2023-05-15T08:10:44;80.90;;;38.58;;
56043;SDS011;41912;51.022;3.664;2023-05-15T08:13:10;84.88;;;38.60;;
56043;SDS011;41912;51.022;3.664;2023-05-15T08:15:35;86.63;;;40.42;;
56043;SDS011;41912;51.022;3.664;2023-05-15T08:18:01;95.38;;;40.75;;
56043;SDS011;41912;51.022;3.664;2023-05-15T08:20:32;91.88;;;42.65;;
56043;SDS011;41912;51.022;3.664;2023-05-15T08:22:58;91.22;;;41.65;;
56043;SDS011;41912;51.022;3.664;2023-05-15T08:25:23;90.07;;;41.38;;
56043;SDS011;41912;51.022;3.664;2023-05-15T08:27:49;89.80;;;41.50;;
56043;SDS011;41912;51.022;3.664;2023-05-15T08:30:15;91.53;;;41.90;;
56043;SDS011;41912;51.022;3.664;2023-05-15T08:32:42;91.00;;;41.28;;
56043;SDS011;41912;51.022;3.664;2023-05-15T08:35:09;86.65;;;41.22;;
56043;SDS011;41912;51.022;3.664;2023-05-15T08:37:35;84.05;;;40.75;;
56043;SDS011;41912;51.022;3.664;2023-05-15T08:40:01;83.97;;;40.20;;
56043;SDS011;41912;51.022;3.664;2023-05-15T08:45:02;82.68;;;38.25;;
56043;SDS011;41912;51.022;3.664;2023-05-15T08:47:28;85.25;;;39.17;;
56043;SDS011;41912;51.022;3.664;2023-05-15T08:49:59;77.03;;;37.47;;
56043;SDS011;41912;51.022;3.664;2023-05-15T08:52:33;69.47;;;35.38;;
56043;SDS011;41912;51.022;3.664;2023-05-15T08:54:59;85.32;;;37.97;;
56043;SDS011;41912;51.022;3.664;2023-05-15T08:57:26;73.68;;;35.50;;
56043;SDS011;41912;51.022;3.664;2023-05-15T08:59:52;76.43;;;36.67;;
56043;SDS011;41912;51.022;3.664;2023-05-15T09:02:19;76.13;;;38.30;;
56043;SDS011;41912;51.022;3.664;2023-05-15T09:04:45;69.15;;;34.70;;
56043;SDS011;41912;51.022;3.664;2023-05-15T09:07:11;70.97;;;35.75;;
56043;SDS011;41912;51.022;3.664;2023-05-15T09:09:39;69.90;;;36.17;;
56043;SDS011;41912;51.022;3.664;2023-05-15T09:12:07;66.18;;;34.85;;
56043;SDS011;41912;51.022;3.664;2023-05-15T09:14:35;70.65;;;36.47;;
56043;SDS011;41912;51.022;3.664;2023-05-15T09:17:01;76.10;;;36.15;;
56043;SDS011;41912;51.022;3.664;2023-05-15T09:19:26;72.72;;;36.33;;
56043;SDS011;41912;51.022;3.664;2023-05-15T09:21:52;75.40;;;36.95;;
56043;SDS011;41912;51.022;3.664;2023-05-15T09:27:01;80.00;;;37.60;;
56043;SDS011;41912;51.022;3.664;2023-05-15T09:29:29;75.05;;;36.72;;
56043;SDS011;41912;51.022;3.664;2023-05-15T09:31:56;72.65;;;36.88;;
56043;SDS011;41912;51.022;3.664;2023-05-15T09:34:29;71.03;;;36.30;;
56043;SDS011;41912;51.022;3.664;2023-05-15T09:37:00;69.53;;;35.97;;
56043;SDS011;41912;51.022;3.664;2023-05-15T09:39:28;75.55;;;36.03;;
56043;SDS011;41912;51.022;3.664;2023-05-15T09:42:10;68.18;;;34.55;;
56043;SDS011;41912;51.022;3.664;2023-05-15T09:44:40;73.47;;;35.45;;
56043;SDS011;41912;51.022;3.664;2023-05-15T09:47:07;71.28;;;35.80;;
56043;SDS011;41912;51.022;3.664;2023-05-15T09:49:34;70.10;;;34.63;;
56043;SDS011;41912;51.022;3.664;2023-05-15T09:52:00;70.05;;;35.03;;
56043;SDS011;41912;51.022;3.664;2023-05-15T09:54:25;72.07;;;35.08;;
56043;SDS011;41912;51.022;3.664;2023-05-15T09:56:53;68.45;;;34.55;;
56043;SDS011;41912;51.022;3.664;2023-05-15T09:59:20;72.90;;;35.42;;
56043;SDS011;41912;51.022;3.664;2023-05-15T10:01:47;68.80;;;33.97;;
56043;SDS011;41912;51.022;3.664;2023-05-15T10:04:14;65.68;;;34.53;;
56043;SDS011;41912;51.022;3.664;2023-05-15T10:06:41;65.78;;;33.90;;
56043;SDS011;41912;51.022;3.664;2023-05-15T10:09:10;67.05;;;34.33;;
56043;SDS011;41912;51.022;3.664;2023-05-15T10:11:37;70.38;;;33.95;;
56043;SDS011;41912;51.022;3.664;2023-05-15T10:14:04;72.38;;;33.65;;
56043;SDS011;41912;51.022;3.664;2023-05-15T10:16:32;73.10;;;34.70;;
56043;SDS011;41912;51.022;3.664;2023-05-15T10:19:00;68.82;;;32.78;;
56043;SDS011;41912;51.022;3.664;2023-05-15T10:21:37;78.00;;;34.70;;
56043;SDS011;41912;51.022;3.664;2023-05-15T10:24:06;67.50;;;32.17;;
56043;SDS011;41912;51.022;3.664;2023-05-15T10:26:36;73.72;;;35.25;;
56043;SDS011;41912;51.022;3.664;2023-05-15T10:34:01;69.45;;;32.10;;
56043;SDS011;41912;51.022;3.664;2023-05-15T10:36:31;71.75;;;33.50;;
56043;SDS011;41912;51.022;3.664;2023-05-15T10:39:01;69.72;;;32.22;;
56043;SDS011;41912;51.022;3.664;2023-05-15T10:41:28;66.15;;;31.10;;
56043;SDS011;41912;51.022;3.664;2023-05-15T10:43:58;72.15;;;32.65;;
56043;SDS011;41912;51.022;3.664;2023-05-15T10:46:28;65.63;;;30.02;;
56043;SDS011;41912;51.022;3.664;2023-05-15T10:48:56;61.63;;;28.80;;
56043;SDS011;41912;51.022;3.664;2023-05-15T10:51:24;67.03;;;30.42;;
56043;SDS011;41912;51.022;3.664;2023-05-15T10:53:51;68.47;;;32.47;;
56043;SDS011;41912;51.022;3.664;2023-05-15T10:56:17;62.10;;;29.23;;
56043;SDS011;41912;51.022;3.664;2023-05-15T10:58:44;60.08;;;28.17;;
56043;SDS011;41912;51.022;3.664;2023-05-15T11:01:27;63.47;;;30.00;;
56043;SDS011;41912;51.022;3.664;2023-05-15T11:06:39;72.60;;;29.47;;
56043;SDS011;41912;51.022;3.664;2023-05-15T11:14:15;55.33;;;24.70;;
56043;SDS011;41912;51.022;3.664;2023-05-15T11:17:14;58.83;;;24.80;;
56043;SDS011;41912;51.022;3.664;2023-05-15T11:19:34;60.67;;;25.83;;
56043;SDS011;41912;51.022;3.664;2023-05-15T11:22:03;45.22;;;21.92;;
56043;SDS011;41912;51.022;3.664;2023-05-15T11:24:53;21.92;;;9.82;;
56043;SDS011;41912;51.022;3.664;2023-05-15T11:27:39;17.23;;;8.10;;
56043;SDS011;41912;51.022;3.664;2023-05-15T11:30:06;8.02;;;2.42;;
56043;SDS011;41912;51.022;3.664;2023-05-15T11:35:28;4.88;;;2.42;;
56043;SDS011;41912;51.022;3.664;2023-05-15T11:40:47;3.47;;;1.40;;
56043;SDS011;41912;51.022;3.664;2023-05-15T11:43:24;2.13;;;1.15;;
56043;SDS011;41912;51.022;3.664;2023-05-15T11:45:51;4.80;;;1.48;;
56043;SDS011;41912;51.022;3.664;2023-05-15T11:48:22;6.88;;;1.75;;
56043;SDS011;41912;51.022;3.664;2023-05-15T11:50:49;8.70;;;1.95;;
56043;SDS011;41912;51.022;3.664;2023-05-15T11:53:18;7.38;;;2.05;;
56043;SDS011;41912;51.022;3.664;2023-05-15T11:55:44;7.25;;;1.90;;
56043;SDS011;41912;51.022;3.664;2023-05-15T11:58:18;7.68;;;1.70;;
56043;SDS011;41912;51.022;3.664;2023-05-15T12:00:45;5.70;;;1.90;;
56043;SDS011;41912;51.022;3.664;2023-05-15T12:03:15;5.40;;;2.20;;
56043;SDS011;41912;51.022;3.664;2023-05-15T12:05:48;9.20;;;2.20;;
56043;SDS011;41912;51.022;3.664;2023-05-15T12:08:15;7.97;;;2.35;;
56043;SDS011;41912;51.022;3.664;2023-05-15T12:10:41;9.35;;;2.90;;
56043;SDS011;41912;51.022;3.664;2023-05-15T12:13:10;12.50;;;3.05;;
56043;SDS011;41912;51.022;3.664;2023-05-15T12:15:38;9.52;;;2.35;;
56043;SDS011;41912;51.022;3.664;2023-05-15T12:18:08;13.38;;;2.65;;
56043;SDS011;41912;51.022;3.664;2023-05-15T12:20:34;10.13;;;2.70;;
56043;SDS011;41912;51.022;3.664;2023-05-15T12:23:01;8.10;;;2.47;;
56043;SDS011;41912;51.022;3.664;2023-05-15T12:25:28;11.18;;;2.80;;
56043;SDS011;41912;51.022;3.664;2023-05-15T12:27:54;11.30;;;2.90;;
56043;SDS011;41912;51.022;3.664;2023-05-15T12:30:20;16.90;;;4.38;;
56043;SDS011;41912;51.022;3.664;2023-05-15T12:32:46;9.40;;;2.45;;
56043;SDS011;41912;51.022;3.664;2023-05-15T12:35:12;14.45;;;3.05;;
56043;SDS011;41912;51.022;3.664;2023-05-15T12:37:40;13.02;;;2.70;;
56043;SDS011;41912;51.022;3.664;2023-05-15T12:40:06;6.63;;;2.50;;
56043;SDS011;41912;51.022;3.664;2023-05-15T12:42:42;12.23;;;3.60;;
56043;SDS011;41912;51.022;3.664;2023-05-15T12:45:12;9.02;;;2.72;;
56043;SDS011;41912;51.022;3.664;2023-05-15T12:47:39;13.30;;;2.70;;
56043;SDS011;41912;51.022;3.664;2023-05-15T12:50:13;7.15;;;2.33;;
56043;SDS011;41912;51.022;3.664;2023-05-15T12:52:44;11.25;;;2.58;;
56043;SDS011;41912;51.022;3.664;2023-05-15T12:57:56;10.20;;;3.08;;
56043;SDS011;41912;51.022;3.664;2023-05-15T13:00:23;10.95;;;3.55;;
56043;SDS011;41912;51.022;3.664;2023-05-15T13:02:52;16.92;;;3.92;;
56043;SDS011;41912;51.022;3.664;2023-05-15T13:05:18;12.15;;;3.53;;
56043;SDS011;41912;51.022;3.664;2023-05-15T13:07:44;9.90;;;2.88;;
56043;SDS011;41912;51.022;3.664;2023-05-15T13:10:10;13.20;;;3.17;;
56043;SDS011;41912;51.022;3.664;2023-05-15T13:15:05;10.85;;;2.90;;
56043;SDS011;41912;51.022;3.664;2023-05-15T13:17:32;9.30;;;3.08;;
56043;SDS011;41912;51.022;3.664;2023-05-15T13:20:04;18.33;;;4.35;;
56043;SDS011;41912;51.022;3.664;2023-05-15T13:22:31;12.57;;;3.53;;
56043;SDS011;41912;51.022;3.664;2023-05-15T13:24:57;13.45;;;3.10;;
56043;SDS011;41912;51.022;3.664;2023-05-15T13:27:22;13.55;;;3.35;;
56043;SDS011;41912;51.022;3.664;2023-05-15T13:29:48;11.20;;;3.47;;
56043;SDS011;41912;51.022;3.664;2023-05-15T13:32:14;17.05;;;4.68;;
56043;SDS011;41912;51.022;3.664;2023-05-15T13:34:39;15.18;;;4.32;;
56043;SDS011;41912;51.022;3.664;2023-05-15T13:37:05;13.63;;;4.35;;
56043;SDS011;41912;51.022;3.664;2023-05-15T13:39:30;11.10;;;3.00;;
56043;SDS011;41912;51.022;3.664;2023-05-15T13:41:56;12.05;;;4.13;;
56043;SDS011;41912;51.022;3.664;2023-05-15T13:44:22;10.98;;;3.42;;
56043;SDS011;41912;51.022;3.664;2023-05-15T13:46:48;13.05;;;3.67;;
56043;SDS011;41912;51.022;3.664;2023-05-15T13:49:13;18.35;;;4.95;;
56043;SDS011;41912;51.022;3.664;2023-05-15T13:51:39;12.38;;;3.45;;
56043;SDS011;41912;51.022;3.664;2023-05-15T13:54:04;17.05;;;3.53;;
56043;SDS011;41912;51.022;3.664;2023-05-15T13:56:30;17.73;;;3.92;;
56043;SDS011;41912;51.022;3.664;2023-05-15T13:58:55;15.90;;;3.60;;
56043;SDS011;41912;51.022;3.664;2023-05-15T14:01:21;13.73;;;3.72;;
56043;SDS011;41912;51.022;3.664;2023-05-15T14:03:47;15.23;;;3.50;;
56043;SDS011;41912;51.022;3.664;2023-05-15T14:06:12;14.63;;;4.03;;
56043;SDS011;41912;51.022;3.664;2023-05-15T14:08:38;16.88;;;4.13;;
56043;SDS011;41912;51.022;3.664;2023-05-15T14:11:04;8.88;;;3.50;;
56043;SDS011;41912;51.022;3.664;2023-05-15T14:13:29;16.80;;;4.00;;
56043;SDS011;41912;51.022;3.664;2023-05-15T14:15:58;11.55;;;3.35;;
56043;SDS011;41912;51.022;3.664;2023-05-15T14:18:24;15.63;;;4.30;;
56043;SDS011;41912;51.022;3.664;2023-05-15T14:20:50;23.75;;;4.22;;
56043;SDS011;41912;51.022;3.664;2023-05-15T14:23:16;25.77;;;5.03;;
56043;SDS011;41912;51.022;3.664;2023-05-15T14:25:42;9.40;;;3.33;;
56043;SDS011;41912;51.022;3.664;2023-05-15T14:28:08;10.90;;;3.75;;
56043;SDS011;41912;51.022;3.664;2023-05-15T14:30:33;18.08;;;6.78;;
56043;SDS011;41912;51.022;3.664;2023-05-15T14:32:59;13.38;;;4.35;;
56043;SDS011;41912;51.022;3.664;2023-05-15T14:35:25;13.77;;;4.72;;
56043;SDS011;41912;51.022;3.664;2023-05-15T14:37:50;14.02;;;3.92;;
56043;SDS011;41912;51.022;3.664;2023-05-15T14:40:16;14.60;;;3.33;;
56043;SDS011;41912;51.022;3.664;2023-05-15T14:42:42;12.45;;;3.63;;
56043;SDS011;41912;51.022;3.664;2023-05-15T14:45:08;13.43;;;3.72;;
56043;SDS011;41912;51.022;3.664;2023-05-15T14:47:34;20.00;;;5.20;;
56043;SDS011;41912;51.022;3.664;2023-05-15T14:49:59;11.50;;;4.50;;
56043;SDS011;41912;51.022;3.664;2023-05-15T14:52:25;15.30;;;4.05;;
56043;SDS011;41912;51.022;3.664;2023-05-15T14:54:51;13.98;;;4.22;;
56043;SDS011;41912;51.022;3.664;2023-05-15T14:57:16;19.33;;;3.92;;
56043;SDS011;41912;51.022;3.664;2023-05-15T14:59:44;17.08;;;3.88;;